Time;durP1;ratioP1;P1;durP2;ratioP2;P2;SDS_P1;SDS_P2;PMS_P1;PMS_P2;Temp;Humidity;BMP_temperature;BMP_pressure;BME280_temperature;BME280_humidity;BME280_pressure;Samples;Min_cycle;Max_cycle;Signal;HPM_P1;HPM_P2
2023/01/21 00:00:24;;;;;;;;;;;-0.60;99.90;;;;;;4953219;28;19926;-76
2023/01/21 00:02:51;;;;;;;;;;;-0.60;99.90;;;;;;4949173;28;19949;-76
2023/01/21 00:05:19;;;;;;;;;;;-0.70;99.90;;;;;;4935761;29;20293;-76
2023/01/21 00:07:46;;;;;;;;;;;-0.70;99.90;;;;;;4944830;28;20021;-76
2023/01/21 00:10:12;;;;;;;;;;;-0.70;99.90;;;;;;4948207;28;19926;-76
2023/01/21 00:12:39;;;;;;;;;;;-0.70;99.90;;;;;;4951467;28;19934;-76
2023/01/21 00:15:07;;;;;;;;;;;-0.70;99.90;;;;;;4930069;28;19976;-76
2023/01/21 00:17:35;;;;;;;;;;;-0.70;99.90;;;;;;4950712;28;19933;-75
2023/01/21 00:20:03;;;;;;;;;;;-0.70;99.90;;;;;;4946421;28;19926;-76
2023/01/21 00:22:31;;;;;;;;;;;-0.70;99.90;;;;;;4945198;28;20444;-76
2023/01/21 00:24:58;;;;;;;;;;;-0.70;99.90;;;;;;4945436;28;20282;-76
2023/01/21 00:27:25;;;;;;;;;;;-0.80;99.90;;;;;;4934511;28;19977;-76
2023/01/21 00:29:52;;;;;;;;;;;-0.80;99.90;;;;;;4948442;28;19982;-76
2023/01/21 00:32:19;;;;;;;;;;;-0.80;99.90;;;;;;4933595;29;19926;-76
2023/01/21 00:34:45;;;;;;;;;;;-0.90;99.90;;;;;;4951638;28;19936;-76
2023/01/21 00:37:12;;;;;;;;;;;-0.90;99.90;;;;;;4943379;28;19937;-76
2023/01/21 00:39:41;;;;;;;;;;;-0.90;99.90;;;;;;4949061;28;20009;-76
2023/01/21 00:42:10;;;;;;;;;;;-0.90;99.90;;;;;;4949684;28;19926;-76
2023/01/21 00:44:36;;;;;;;;;;;-0.90;99.90;;;;;;4950160;28;19958;-76
2023/01/21 00:47:04;;;;;;;;;;;-0.90;99.90;;;;;;4947715;28;20401;-76
2023/01/21 00:49:30;;;;;;;;;;;-0.90;99.90;;;;;;4950036;28;19958;-76
2023/01/21 00:51:57;;;;;;;;;;;-0.90;99.90;;;;;;4945279;28;20429;-76
2023/01/21 00:54:24;;;;;;;;;;;-0.90;99.90;;;;;;4948971;28;19938;-76
2023/01/21 00:56:52;;;;;;;;;;;-0.90;99.90;;;;;;4946045;28;19973;-76
2023/01/21 00:59:19;;;;;;;;;;;-0.90;99.90;;;;;;4951468;28;20310;-80
2023/01/21 01:01:46;;;;;;;;;;;-0.90;99.90;;;;;;4926783;28;20309;-77
2023/01/21 01:04:13;;;;;;;;;;;-0.90;99.90;;;;;;4950862;28;19930;-78
2023/01/21 01:06:40;;;;;;;;;;;-0.90;99.90;;;;;;4947905;28;19954;-83
2023/01/21 01:09:07;;;;;;;;;;;-1.00;99.90;;;;;;4948094;28;20356;-77
2023/01/21 01:11:33;;;;;;;;;;;-1.00;99.90;;;;;;4930339;29;20009;-78
2023/01/21 01:14:02;;;;;;;;;;;-1.00;99.90;;;;;;4953037;28;20389;-77
2023/01/21 01:16:29;;;;;;;;;;;-1.00;99.90;;;;;;4950262;28;19926;-79
2023/01/21 01:18:56;;;;;;;;;;;-1.00;99.90;;;;;;4950006;28;20392;-78
2023/01/21 01:21:23;;;;;;;;;;;-1.00;99.90;;;;;;4951150;28;19926;-77
2023/01/21 01:23:52;;;;;;;;;;;-1.00;99.90;;;;;;4954195;28;19931;-78
2023/01/21 01:26:19;;;;;;;;;;;-1.00;99.90;;;;;;4937889;28;19927;-78
2023/01/21 01:28:46;;;;;;;;;;;-1.00;99.90;;;;;;4952590;28;19931;-77
2023/01/21 01:31:15;;;;;;;;;;;-1.00;99.90;;;;;;4948175;28;19957;-78
2023/01/21 01:33:42;;;;;;;;;;;-1.10;99.90;;;;;;4953589;28;20005;-80
2023/01/21 01:36:11;;;;;;;;;;;-1.10;99.90;;;;;;4948533;28;19969;-76
2023/01/21 01:38:38;;;;;;;;;;;-1.10;99.90;;;;;;4951826;28;19958;-77
2023/01/21 01:41:06;;;;;;;;;;;-1.10;99.90;;;;;;4954680;28;20341;-76
2023/01/21 01:43:49;;;;;;;;;;;-1.10;99.90;;;;;;4945702;28;19974;-76
2023/01/21 01:46:18;;;;;;;;;;;-1.20;99.90;;;;;;4956469;28;19934;-76
2023/01/21 01:48:47;;;;;;;;;;;-1.20;99.90;;;;;;4933884;28;19926;-75
2023/01/21 01:51:15;;;;;;;;;;;-1.20;99.90;;;;;;4935612;29;20139;-76
2023/01/21 01:53:43;;;;;;;;;;;-1.20;99.90;;;;;;4950353;28;19930;-76
2023/01/21 01:56:10;;;;;;;;;;;-1.20;99.90;;;;;;4952436;28;19966;-78
2023/01/21 01:58:38;;;;;;;;;;;-1.20;99.90;;;;;;4952287;28;20039;-78
2023/01/21 02:01:04;;;;;;;;;;;-1.20;99.90;;;;;;4931967;28;20646;-76
2023/01/21 02:03:49;;;;;;;;;;;-1.20;99.90;;;;;;4951880;28;19934;-76
2023/01/21 02:06:17;;;;;;;;;;;-1.20;99.90;;;;;;4949096;28;20455;-76
2023/01/21 02:08:44;;;;;;;;;;;-1.20;99.90;;;;;;4949630;28;19954;-76
2023/01/21 02:11:11;;;;;;;;;;;-1.20;99.90;;;;;;4947427;28;19927;-76
2023/01/21 02:13:39;;;;;;;;;;;-1.20;99.90;;;;;;4952685;28;19926;-76
2023/01/21 02:16:13;;;;;;;;;;;-1.30;99.90;;;;;;4953986;28;19935;-76
2023/01/21 02:18:46;;;;;;;;;;;-1.30;99.90;;;;;;4944914;28;19965;-76
2023/01/21 02:21:31;;;;;;;;;;;-1.30;99.90;;;;;;4949896;28;20051;-76
2023/01/21 02:24:13;;;;;;;;;;;-1.30;99.90;;;;;;4950863;28;20693;-76
2023/01/21 02:26:53;;;;;;;;;;;-1.40;99.90;;;;;;4949848;28;20424;-75
2023/01/21 02:29:30;;;;;;;;;;;-1.40;99.90;;;;;;4950958;28;20020;-76
2023/01/21 02:32:00;;;;;;;;;;;-1.40;99.90;;;;;;4953664;28;20032;-75
2023/01/21 02:34:32;;;;;;;;;;;-1.40;99.90;;;;;;4934415;29;19926;-76
2023/01/21 02:37:09;;;;;;;;;;;-1.40;99.90;;;;;;4944543;28;19931;-76
2023/01/21 02:39:44;;;;;;;;;;;-1.40;99.90;;;;;;4951486;28;20226;-76
2023/01/21 02:42:12;;;;;;;;;;;-1.50;99.90;;;;;;4959501;28;19930;-76
2023/01/21 02:44:40;;;;;;;;;;;-1.50;99.90;;;;;;4950479;28;19926;-76
2023/01/21 02:47:14;;;;;;;;;;;-1.50;99.90;;;;;;4932341;28;19934;-76
2023/01/21 02:49:44;;;;;;;;;;;-1.50;99.90;;;;;;4932362;28;19926;-76
2023/01/21 02:52:17;;;;;;;;;;;-1.50;99.90;;;;;;4950200;28;19953;-76
2023/01/21 02:54:51;;;;;;;;;;;-1.50;99.90;;;;;;4927267;28;19985;-76
2023/01/21 02:57:20;;;;;;;;;;;-1.50;99.90;;;;;;4931897;29;20010;-76
2023/01/21 02:59:48;;;;;;;;;;;-1.60;99.90;;;;;;4948827;28;19931;-76
2023/01/21 03:02:20;;;;;;;;;;;-1.60;99.90;;;;;;4925830;28;19926;-76
2023/01/21 03:04:53;;;;;;;;;;;-1.60;99.90;;;;;;4944641;28;20424;-78
2023/01/21 03:07:22;;;;;;;;;;;-1.60;99.90;;;;;;4944503;28;19941;-78
2023/01/21 03:09:49;;;;;;;;;;;-1.60;99.90;;;;;;4944041;28;19957;-78
2023/01/21 03:12:29;;;;;;;;;;;-1.60;99.90;;;;;;4942417;28;19926;-77
2023/01/21 03:17:46;;;;;;;;;;;-1.60;99.90;;;;;;4940954;28;19930;-77
2023/01/21 03:20:17;;;;;;;;;;;-1.60;99.90;;;;;;4942294;28;19981;-79
2023/01/21 03:22:45;;;;;;;;;;;-1.60;99.90;;;;;;4927834;28;22719;-78
2023/01/21 03:25:12;;;;;;;;;;;-1.60;99.90;;;;;;4930631;29;20681;-78
2023/01/21 03:27:41;;;;;;;;;;;-1.60;99.90;;;;;;4943373;28;19927;-78
2023/01/21 03:30:10;;;;;;;;;;;-1.60;99.90;;;;;;4947691;28;19930;-78
2023/01/21 03:32:38;;;;;;;;;;;-1.70;99.90;;;;;;4942769;28;20349;-78
2023/01/21 03:35:06;;;;;;;;;;;-1.70;99.90;;;;;;4945152;28;19915;-76
2023/01/21 03:37:36;;;;;;;;;;;-1.70;99.90;;;;;;4938346;28;20230;-76
2023/01/21 03:40:08;;;;;;;;;;;-1.70;99.90;;;;;;4944209;28;19938;-76
2023/01/21 03:42:35;;;;;;;;;;;-1.70;99.90;;;;;;4940559;28;19965;-75
2023/01/21 03:45:02;;;;;;;;;;;-1.70;99.90;;;;;;4925292;28;19989;-75
2023/01/21 03:47:31;;;;;;;;;;;-1.70;99.90;;;;;;4949686;28;19927;-76
2023/01/21 03:49:59;;;;;;;;;;;-1.70;99.90;;;;;;4944691;28;19965;-79
2023/01/21 03:52:28;;;;;;;;;;;-1.80;99.90;;;;;;4947681;28;20364;-78
2023/01/21 03:54:56;;;;;;;;;;;-1.70;99.90;;;;;;4934491;28;19935;-78
2023/01/21 03:57:23;;;;;;;;;;;-1.80;99.90;;;;;;4933412;28;19969;-77
2023/01/21 03:59:50;;;;;;;;;;;-1.80;99.90;;;;;;4937942;28;19959;-75
2023/01/21 04:02:18;;;;;;;;;;;-1.80;99.90;;;;;;4948858;28;20013;-76
2023/01/21 04:04:45;;;;;;;;;;;-1.80;99.90;;;;;;4948168;28;20361;-75
2023/01/21 04:07:12;;;;;;;;;;;-1.80;99.90;;;;;;4929008;28;19990;-76
2023/01/21 04:09:39;;;;;;;;;;;-1.80;99.90;;;;;;4947129;28;21306;-75
2023/01/21 04:12:07;;;;;;;;;;;-1.90;99.90;;;;;;4949669;28;19981;-75
2023/01/21 04:14:34;;;;;;;;;;;-1.90;99.90;;;;;;4950382;28;19934;-75
2023/01/21 04:17:01;;;;;;;;;;;-1.80;99.90;;;;;;4949013;28;19968;-74
2023/01/21 04:19:28;;;;;;;;;;;-1.80;99.90;;;;;;4945624;28;19986;-75
2023/01/21 04:21:55;;;;;;;;;;;-1.90;99.90;;;;;;4947151;28;19933;-75
2023/01/21 04:24:23;;;;;;;;;;;-1.90;99.90;;;;;;4951101;28;20637;-75
2023/01/21 04:26:50;;;;;;;;;;;-1.90;99.90;;;;;;4950290;28;19972;-76
2023/01/21 04:29:18;;;;;;;;;;;-1.90;99.90;;;;;;4950048;28;19949;-80
2023/01/21 04:31:45;;;;;;;;;;;-1.90;99.90;;;;;;4948524;28;19926;-76
2023/01/21 04:34:12;;;;;;;;;;;-1.90;99.90;;;;;;4931751;29;19950;-75
2023/01/21 04:36:39;;;;;;;;;;;-1.90;99.90;;;;;;4943566;28;19934;-77
2023/01/21 04:39:05;;;;;;;;;;;-1.90;99.90;;;;;;4943140;28;19934;-75
2023/01/21 04:41:32;;;;;;;;;;;-2.00;99.90;;;;;;4945376;28;20439;-76
2023/01/21 04:43:59;;;;;;;;;;;-2.00;99.90;;;;;;4946162;28;19981;-78
2023/01/21 04:46:30;;;;;;;;;;;-2.00;99.90;;;;;;4946610;28;19934;-76
2023/01/21 04:48:57;;;;;;;;;;;-1.90;99.90;;;;;;4944004;28;19934;-79
2023/01/21 04:51:23;;;;;;;;;;;-2.00;99.90;;;;;;4951923;28;19930;-76
2023/01/21 04:53:53;;;;;;;;;;;-1.90;99.90;;;;;;4941764;28;20425;-76
2023/01/21 04:56:20;;;;;;;;;;;-1.90;99.90;;;;;;4945379;28;19934;-75
2023/01/21 04:58:47;;;;;;;;;;;-1.90;99.90;;;;;;4947809;28;20409;-77
2023/01/21 05:01:15;;;;;;;;;;;-1.90;99.90;;;;;;4929659;29;20319;-77
2023/01/21 05:03:44;;;;;;;;;;;-1.90;99.90;;;;;;4926502;29;19966;-78
2023/01/21 05:06:11;;;;;;;;;;;-1.90;99.90;;;;;;4930161;29;19930;-76
2023/01/21 05:08:37;;;;;;;;;;;-1.90;99.90;;;;;;4928586;29;19952;-78
2023/01/21 05:11:07;;;;;;;;;;;-2.00;99.90;;;;;;4931088;29;20021;-79
2023/01/21 05:13:34;;;;;;;;;;;-2.00;99.90;;;;;;4933180;29;20416;-81
2023/01/21 05:16:03;;;;;;;;;;;-2.00;99.90;;;;;;4930504;29;19927;-78
2023/01/21 05:18:29;;;;;;;;;;;-2.00;99.90;;;;;;4930251;29;20055;-78
2023/01/21 05:21:00;;;;;;;;;;;-2.00;99.90;;;;;;4930596;29;20305;-82
2023/01/21 05:23:27;;;;;;;;;;;-2.00;99.90;;;;;;4932229;29;19927;-77
2023/01/21 05:25:53;;;;;;;;;;;-2.00;99.90;;;;;;4932900;29;20009;-77
2023/01/21 05:28:21;;;;;;;;;;;-2.00;99.90;;;;;;4932777;29;19927;-85
2023/01/21 05:30:48;;;;;;;;;;;-2.00;99.90;;;;;;4929481;29;19931;-76
2023/01/21 05:33:15;;;;;;;;;;;-2.00;99.90;;;;;;4933643;29;19926;-76
2023/01/21 05:35:41;;;;;;;;;;;-2.00;99.90;;;;;;4936501;29;19941;-80
2023/01/21 05:38:10;;;;;;;;;;;-2.00;99.90;;;;;;4931078;29;19941;-78
2023/01/21 05:40:37;;;;;;;;;;;-2.00;99.90;;;;;;4930369;29;19926;-84
2023/01/21 05:43:04;;;;;;;;;;;-2.00;99.90;;;;;;4936913;29;19931;-78
2023/01/21 05:45:31;;;;;;;;;;;-2.00;99.90;;;;;;4933847;29;19974;-81
2023/01/21 05:48:04;;;;;;;;;;;-2.00;99.90;;;;;;4930597;29;19935;-78
2023/01/21 05:50:31;;;;;;;;;;;-2.00;99.90;;;;;;4933716;29;20086;-78
2023/01/21 05:52:58;;;;;;;;;;;-2.00;99.90;;;;;;4933477;29;20388;-78
2023/01/21 05:55:26;;;;;;;;;;;-2.00;99.90;;;;;;4936244;29;19974;-78
2023/01/21 05:57:53;;;;;;;;;;;-2.00;99.90;;;;;;4930718;29;20025;-78
2023/01/21 06:00:20;;;;;;;;;;;-2.00;99.90;;;;;;4933441;29;19927;-78
2023/01/21 06:02:47;;;;;;;;;;;-2.00;99.90;;;;;;4935790;29;19973;-78
2023/01/21 06:05:14;;;;;;;;;;;-2.00;99.90;;;;;;4938573;29;19934;-78
2023/01/21 06:07:41;;;;;;;;;;;-2.00;99.90;;;;;;4941362;29;19926;-77
2023/01/21 06:10:08;;;;;;;;;;;-2.00;99.90;;;;;;4938825;29;19930;-79
2023/01/21 06:12:37;;;;;;;;;;;-2.00;99.90;;;;;;4920791;29;19930;-79
2023/01/21 06:15:04;;;;;;;;;;;-2.00;99.90;;;;;;4932676;29;19994;-79
2023/01/21 06:17:31;;;;;;;;;;;-2.00;99.90;;;;;;4940549;28;19935;-78
2023/01/21 06:19:58;;;;;;;;;;;-2.00;99.90;;;;;;4933839;29;19935;-78
2023/01/21 06:22:25;;;;;;;;;;;-2.00;99.90;;;;;;4936142;29;19933;-77
2023/01/21 06:24:52;;;;;;;;;;;-2.00;99.90;;;;;;4929072;29;20023;-83
2023/01/21 06:27:18;;;;;;;;;;;-2.00;99.90;;;;;;4934470;29;19955;-78
2023/01/21 06:29:47;;;;;;;;;;;-2.00;99.90;;;;;;4937371;29;19927;-78
2023/01/21 06:32:14;;;;;;;;;;;-2.00;99.90;;;;;;4931432;29;19927;-80
2023/01/21 06:34:41;;;;;;;;;;;-2.00;99.90;;;;;;4934374;29;19931;-79
2023/01/21 06:37:07;;;;;;;;;;;-2.00;99.90;;;;;;4938791;29;19927;-80
2023/01/21 06:39:34;;;;;;;;;;;-2.00;99.90;;;;;;4934041;29;20697;-77
2023/01/21 06:42:01;;;;;;;;;;;-2.00;99.90;;;;;;4935888;29;19926;-78
2023/01/21 06:44:28;;;;;;;;;;;-2.00;99.90;;;;;;4933424;29;19927;-78
2023/01/21 06:46:56;;;;;;;;;;;-2.00;99.90;;;;;;4936027;29;19958;-78
2023/01/21 06:49:23;;;;;;;;;;;-2.00;99.90;;;;;;4938883;29;19932;-78
2023/01/21 06:51:50;;;;;;;;;;;-2.00;99.90;;;;;;4932615;29;19931;-78
2023/01/21 06:54:17;;;;;;;;;;;-2.00;99.90;;;;;;4929892;29;19927;-78
2023/01/21 06:56:44;;;;;;;;;;;-2.00;99.90;;;;;;4933786;29;20034;-78
2023/01/21 06:59:14;;;;;;;;;;;-2.00;99.90;;;;;;4928978;29;20037;-78
2023/01/21 07:01:41;;;;;;;;;;;-2.00;99.90;;;;;;4934135;29;19939;-79
2023/01/21 07:04:09;;;;;;;;;;;-2.00;99.90;;;;;;4936500;29;20010;-80
2023/01/21 07:06:36;;;;;;;;;;;-2.00;99.90;;;;;;4927451;29;19927;-78
2023/01/21 07:09:03;;;;;;;;;;;-2.00;99.90;;;;;;4915515;29;19934;-81
2023/01/21 07:11:30;;;;;;;;;;;-2.00;99.90;;;;;;4915600;29;19935;-78
2023/01/21 07:13:57;;;;;;;;;;;-2.00;99.90;;;;;;4934360;29;19927;-78
2023/01/21 07:16:24;;;;;;;;;;;-2.00;99.90;;;;;;4929584;29;20470;-78
2023/01/21 07:18:51;;;;;;;;;;;-2.00;99.90;;;;;;4915016;29;19927;-77
2023/01/21 07:21:19;;;;;;;;;;;-2.00;99.90;;;;;;4929895;29;19914;-78
2023/01/21 07:23:46;;;;;;;;;;;-2.00;99.90;;;;;;4931250;29;19934;-77
2023/01/21 07:26:15;;;;;;;;;;;-2.00;99.90;;;;;;4930893;29;19926;-77
2023/01/21 07:28:42;;;;;;;;;;;-2.00;99.90;;;;;;4928728;29;20377;-76
2023/01/21 07:31:09;;;;;;;;;;;-2.00;99.90;;;;;;4925095;29;19935;-76
2023/01/21 07:33:36;;;;;;;;;;;-2.00;99.90;;;;;;4929028;29;19927;-76
2023/01/21 07:36:03;;;;;;;;;;;-2.00;99.90;;;;;;4929000;29;19942;-77
2023/01/21 07:38:31;;;;;;;;;;;-2.00;99.90;;;;;;4934153;29;19994;-76
2023/01/21 07:40:58;;;;;;;;;;;-2.00;99.90;;;;;;4927956;29;19982;-76
2023/01/21 07:43:26;;;;;;;;;;;-2.00;99.90;;;;;;4931468;29;20329;-76
2023/01/21 07:45:54;;;;;;;;;;;-2.00;99.90;;;;;;4927235;29;19934;-76
2023/01/21 07:48:23;;;;;;;;;;;-2.00;99.90;;;;;;4924998;29;19927;-76
2023/01/21 07:50:50;;;;;;;;;;;-1.90;99.90;;;;;;4929944;29;19937;-77
2023/01/21 07:53:18;;;;;;;;;;;-2.00;99.90;;;;;;4925317;29;19927;-78
2023/01/21 07:55:49;;;;;;;;;;;-2.00;99.90;;;;;;4929279;29;19974;-78
2023/01/21 07:58:16;;;;;;;;;;;-2.00;99.90;;;;;;4923019;29;19931;-79
2023/01/21 08:00:43;;;;;;;;;;;-2.00;99.90;;;;;;4929041;29;19981;-80
2023/01/21 08:03:10;;;;;;;;;;;-2.00;99.90;;;;;;4925601;29;20026;-78
2023/01/21 08:05:37;;;;;;;;;;;-2.00;99.90;;;;;;4925885;29;19931;-80
2023/01/21 08:08:04;;;;;;;;;;;-2.00;99.90;;;;;;4930507;29;20018;-79
2023/01/21 08:10:31;;;;;;;;;;;-2.00;99.90;;;;;;4931572;29;20389;-81
2023/01/21 08:13:00;;;;;;;;;;;-2.00;99.90;;;;;;4928820;29;19931;-80
2023/01/21 08:15:27;;;;;;;;;;;-2.00;99.90;;;;;;4930533;29;20021;-79
2023/01/21 08:17:57;;;;;;;;;;;-2.00;99.90;;;;;;4933668;29;19927;-78
2023/01/21 08:20:24;;;;;;;;;;;-2.00;99.90;;;;;;4931621;29;19939;-79
2023/01/21 08:22:51;;;;;;;;;;;-2.00;99.90;;;;;;4929450;29;19966;-77
2023/01/21 08:25:18;;;;;;;;;;;-2.00;99.90;;;;;;4927323;29;20046;-76
2023/01/21 08:27:45;;;;;;;;;;;-2.00;99.90;;;;;;4913952;29;20004;-76
2023/01/21 08:30:14;;;;;;;;;;;-2.00;99.90;;;;;;4919192;29;19935;-78
2023/01/21 08:32:41;;;;;;;;;;;-2.00;99.90;;;;;;4925012;29;19937;-76
2023/01/21 08:35:08;;;;;;;;;;;-2.00;99.90;;;;;;4927529;29;20614;-77
2023/01/21 08:37:35;;;;;;;;;;;-2.00;99.90;;;;;;4923927;29;19927;-77
2023/01/21 08:40:02;;;;;;;;;;;-2.00;99.90;;;;;;4927700;29;19978;-77
2023/01/21 08:42:29;;;;;;;;;;;-2.00;99.90;;;;;;4929931;29;20001;-78
2023/01/21 08:44:57;;;;;;;;;;;-2.00;99.90;;;;;;4924174;29;20428;-77
2023/01/21 08:47:25;;;;;;;;;;;-2.00;99.90;;;;;;4928428;29;19933;-77
2023/01/21 08:49:52;;;;;;;;;;;-2.00;99.90;;;;;;4917143;29;19927;-79
2023/01/21 08:52:20;;;;;;;;;;;-2.00;99.90;;;;;;4929202;29;19981;-77
2023/01/21 08:54:47;;;;;;;;;;;-2.00;99.90;;;;;;4928825;29;20389;-79
2023/01/21 08:57:14;;;;;;;;;;;-2.00;99.90;;;;;;4929410;29;20552;-78
2023/01/21 08:59:41;;;;;;;;;;;-2.00;99.90;;;;;;4930761;29;19937;-79
2023/01/21 09:02:12;;;;;;;;;;;-1.90;99.90;;;;;;4925855;29;19986;-78
2023/01/21 09:04:43;;;;;;;;;;;-1.90;99.90;;;;;;4925117;29;19935;-79
2023/01/21 09:07:10;;;;;;;;;;;-1.90;99.90;;;;;;4929588;29;19937;-77
2023/01/21 09:09:37;;;;;;;;;;;-1.90;99.90;;;;;;4931178;29;19938;-78
2023/01/21 09:12:05;;;;;;;;;;;-1.90;99.90;;;;;;4928700;29;19935;-79
2023/01/21 09:14:32;;;;;;;;;;;-1.90;99.90;;;;;;4930095;29;19927;-77
2023/01/21 09:16:59;;;;;;;;;;;-1.90;99.90;;;;;;4929569;29;19927;-79
2023/01/21 09:19:26;;;;;;;;;;;-1.80;99.90;;;;;;4928371;29;20688;-78
2023/01/21 09:21:54;;;;;;;;;;;-1.90;99.90;;;;;;4925652;29;19934;-77
2023/01/21 09:24:22;;;;;;;;;;;-1.90;99.90;;;;;;4926374;29;19954;-77
2023/01/21 09:26:49;;;;;;;;;;;-1.90;99.90;;;;;;4923536;29;20424;-76
2023/01/21 09:29:16;;;;;;;;;;;-1.80;99.90;;;;;;4926858;29;19927;-80
2023/01/21 09:31:42;;;;;;;;;;;-1.80;99.90;;;;;;4927661;29;19931;-80
2023/01/21 09:34:11;;;;;;;;;;;-1.80;99.90;;;;;;4932294;29;20483;-80
2023/01/21 09:36:38;;;;;;;;;;;-1.80;99.90;;;;;;4934350;29;19927;-77
2023/01/21 09:39:07;;;;;;;;;;;-1.80;99.90;;;;;;4929319;29;19935;-77
2023/01/21 09:41:35;;;;;;;;;;;-1.80;99.90;;;;;;4932924;29;19931;-78
2023/01/21 09:44:05;;;;;;;;;;;-1.80;99.90;;;;;;4930859;29;19926;-77
2023/01/21 09:46:35;;;;;;;;;;;-1.70;99.90;;;;;;4929850;29;19946;-80
2023/01/21 09:49:03;;;;;;;;;;;-1.70;99.90;;;;;;4931189;29;20014;-78
2023/01/21 09:51:39;;;;;;;;;;;-1.70;99.90;;;;;;4934252;29;19927;-78
2023/01/21 09:54:12;;;;;;;;;;;-1.70;99.90;;;;;;4933135;29;19930;-78
2023/01/21 09:56:42;;;;;;;;;;;-1.70;99.90;;;;;;4930144;29;19927;-79
2023/01/21 09:59:15;;;;;;;;;;;-1.70;99.90;;;;;;4923344;29;19935;-76
2023/01/21 10:01:42;;;;;;;;;;;-1.70;99.90;;;;;;4933179;29;19930;-78
2023/01/21 10:04:21;;;;;;;;;;;-1.70;99.90;;;;;;4933197;29;19927;-78
2023/01/21 10:06:51;;;;;;;;;;;-1.70;99.90;;;;;;4935116;29;19974;-80
2023/01/21 10:09:31;;;;;;;;;;;-1.60;99.90;;;;;;4935774;29;19930;-80
2023/01/21 10:12:19;;;;;;;;;;;-1.60;99.90;;;;;;4939783;29;20354;-80
2023/01/21 10:14:51;;;;;;;;;;;-1.60;99.90;;;;;;4928698;29;20071;-83
2023/01/21 10:17:22;;;;;;;;;;;-1.60;99.90;;;;;;4940124;28;20373;-80
2023/01/21 10:20:10;;;;;;;;;;;-1.60;99.90;;;;;;4931953;29;19927;-81
2023/01/21 10:22:47;;;;;;;;;;;-1.50;99.90;;;;;;4934596;29;20464;-81
2023/01/21 10:25:20;;;;;;;;;;;-1.60;99.90;;;;;;4941064;29;19934;-80
2023/01/21 10:27:49;;;;;;;;;;;-1.50;99.90;;;;;;4934656;29;19926;-80
2023/01/21 10:30:23;;;;;;;;;;;-1.50;99.90;;;;;;4937030;29;20480;-80
2023/01/21 10:32:52;;;;;;;;;;;-1.50;99.90;;;;;;4938031;29;19938;-80
2023/01/21 10:35:22;;;;;;;;;;;-1.50;99.90;;;;;;4937267;29;19946;-81
2023/01/21 10:37:52;;;;;;;;;;;-1.50;99.90;;;;;;4940316;29;19982;-79
2023/01/21 10:43:17;;;;;;;;;;;-1.50;99.90;;;;;;4941155;29;19933;-81
2023/01/21 10:45:47;;;;;;;;;;;-1.50;99.90;;;;;;4946188;28;19926;-80
2023/01/21 10:48:19;;;;;;;;;;;-1.40;99.90;;;;;;4941723;29;20029;-80
2023/01/21 10:50:53;;;;;;;;;;;-1.50;99.90;;;;;;4937934;29;19981;-81
2023/01/21 10:53:23;;;;;;;;;;;-1.50;99.90;;;;;;4925574;29;19930;-81
2023/01/21 10:55:56;;;;;;;;;;;-1.40;99.90;;;;;;4936513;29;19927;-81
2023/01/21 10:58:27;;;;;;;;;;;-1.40;99.90;;;;;;4934470;29;19927;-82
2023/01/21 11:00:55;;;;;;;;;;;-1.40;99.90;;;;;;4940918;29;19981;-80
2023/01/21 11:03:28;;;;;;;;;;;-1.40;99.90;;;;;;4938650;29;19942;-80
2023/01/21 11:05:56;;;;;;;;;;;-1.40;99.90;;;;;;4938227;29;19998;-81
2023/01/21 11:08:23;;;;;;;;;;;-1.40;99.90;;;;;;4940718;29;20350;-81
2023/01/21 11:10:54;;;;;;;;;;;-1.40;99.90;;;;;;4921683;29;19974;-81
2023/01/21 11:13:22;;;;;;;;;;;-1.40;99.90;;;;;;4919960;29;20037;-81
2023/01/21 11:15:51;;;;;;;;;;;-1.30;99.90;;;;;;4937846;29;20022;-81
2023/01/21 11:18:26;;;;;;;;;;;-1.30;99.90;;;;;;4944454;29;19930;-81
2023/01/21 11:20:55;;;;;;;;;;;-1.30;99.90;;;;;;4948317;29;19934;-81
2023/01/21 11:23:25;;;;;;;;;;;-1.30;99.90;;;;;;4920042;29;19973;-82
2023/01/21 11:26:00;;;;;;;;;;;-1.30;99.90;;;;;;4937490;29;19934;-81
2023/01/21 11:28:30;;;;;;;;;;;-1.30;99.90;;;;;;4936796;29;19926;-81
2023/01/21 11:31:04;;;;;;;;;;;-1.30;99.90;;;;;;4935552;29;19933;-81
2023/01/21 11:33:35;;;;;;;;;;;-1.30;99.90;;;;;;4936077;29;19962;-81
2023/01/21 11:36:14;;;;;;;;;;;-1.30;99.90;;;;;;4936513;29;19934;-81
2023/01/21 11:38:42;;;;;;;;;;;-1.20;99.90;;;;;;4921102;29;19950;-81
2023/01/21 11:41:17;;;;;;;;;;;-1.20;99.90;;;;;;4929964;29;19941;-81
2023/01/21 11:43:46;;;;;;;;;;;-1.20;99.90;;;;;;4921375;29;19927;-80
2023/01/21 11:46:37;;;;;;;;;;;-1.20;99.90;;;;;;4934420;29;20017;-81
2023/01/21 11:49:18;;;;;;;;;;;-1.20;99.90;;;;;;4920778;29;20025;-81
2023/01/21 11:51:46;;;;;;;;;;;-1.20;99.90;;;;;;4937043;29;19970;-80
2023/01/21 11:54:16;;;;;;;;;;;-1.20;99.90;;;;;;4938170;29;19942;-81
2023/01/21 11:56:56;;;;;;;;;;;-1.20;99.90;;;;;;4941017;29;19926;-81
2023/01/21 11:59:26;;;;;;;;;;;-1.20;99.90;;;;;;4927389;29;19935;-81
2023/01/21 12:01:56;;;;;;;;;;;-1.20;99.90;;;;;;4933911;29;19927;-81
2023/01/21 12:04:28;;;;;;;;;;;-1.20;99.90;;;;;;4938222;29;19927;-82
2023/01/21 12:06:59;;;;;;;;;;;-1.20;99.90;;;;;;4919902;29;19933;-81
2023/01/21 12:09:30;;;;;;;;;;;-1.20;99.90;;;;;;4934877;29;20022;-81
2023/01/21 12:12:27;;;;;;;;;;;-1.20;99.90;;;;;;4939096;29;19934;-81
2023/01/21 12:14:57;;;;;;;;;;;-1.20;99.90;;;;;;4891618;29;19971;-80
2023/01/21 12:17:35;;;;;;;;;;;-1.20;99.90;;;;;;4906029;29;19986;-81
2023/01/21 12:20:11;;;;;;;;;;;-1.10;99.90;;;;;;4944855;28;19977;-79
2023/01/21 12:22:44;;;;;;;;;;;-1.20;99.90;;;;;;4932479;29;20654;-80
2023/01/21 12:25:23;;;;;;;;;;;-1.10;99.90;;;;;;4932331;29;20456;-81
2023/01/21 12:28:05;;;;;;;;;;;-1.10;99.90;;;;;;4932177;29;19946;-81
2023/01/21 12:30:39;;;;;;;;;;;-1.10;99.90;;;;;;4937705;29;20143;-81
2023/01/21 12:33:10;;;;;;;;;;;-1.10;99.90;;;;;;4923798;29;19986;-82
2023/01/21 12:35:39;;;;;;;;;;;-1.10;99.90;;;;;;4935266;29;19978;-82
2023/01/21 12:38:18;;;;;;;;;;;-1.10;99.90;;;;;;4938471;29;20163;-82
2023/01/21 12:40:47;;;;;;;;;;;-1.10;99.90;;;;;;4949813;29;19934;-86
2023/01/21 12:43:16;;;;;;;;;;;-1.00;99.90;;;;;;4949676;28;19937;-84
2023/01/21 12:45:47;;;;;;;;;;;-1.00;99.90;;;;;;4963120;28;19914;-90
2023/01/21 12:48:19;;;;;;;;;;;-1.00;99.90;;;;;;4959894;28;20134;-87
2023/01/21 12:50:48;;;;;;;;;;;-1.00;99.90;;;;;;4956895;28;19933;-90
2023/01/21 12:53:21;;;;;;;;;;;-1.00;99.90;;;;;;4954417;29;19910;-82
2023/01/21 12:56:09;;;;;;;;;;;-1.00;99.90;;;;;;4952646;29;20357;-85
2023/01/21 12:58:39;;;;;;;;;;;-1.00;99.90;;;;;;4951146;29;19938;-93
2023/01/21 13:01:19;;;;;;;;;;;-1.00;99.90;;;;;;4936877;29;19927;-80
2023/01/21 13:03:53;;;;;;;;;;;-1.00;99.90;;;;;;4939278;29;20039;-82
2023/01/21 13:06:25;;;;;;;;;;;-1.00;99.90;;;;;;4938517;29;20022;-80
2023/01/21 13:08:56;;;;;;;;;;;-1.00;99.90;;;;;;4934807;29;19927;-82
2023/01/21 13:11:26;;;;;;;;;;;-1.00;99.90;;;;;;4937662;29;19933;-82
2023/01/21 13:13:58;;;;;;;;;;;-1.00;99.90;;;;;;4935051;29;19927;-82
2023/01/21 13:16:39;;;;;;;;;;;-1.00;99.90;;;;;;4939283;29;19927;-82
2023/01/21 13:22:27;;;;;;;;;;;-1.00;99.90;;;;;;4930547;29;20016;-82
2023/01/21 13:25:08;;;;;;;;;;;-0.90;99.90;;;;;;4920546;29;19966;-82
2023/01/21 13:27:57;;;;;;;;;;;-0.90;99.90;;;;;;4936984;29;19934;-82
2023/01/21 13:36:28;;;;;;;;;;;-0.90;99.90;;;;;;4934425;29;19930;-81
2023/01/21 13:39:13;;;;;;;;;;;-0.90;99.90;;;;;;4942827;29;19927;-81
2023/01/21 13:45:00;;;;;;;;;;;-0.90;99.90;;;;;;4934722;29;20007;-82
2023/01/21 13:47:42;;;;;;;;;;;-0.90;99.90;;;;;;4938729;29;20386;-81
2023/01/21 13:50:28;;;;;;;;;;;-0.90;99.90;;;;;;4930932;29;20006;-82
2023/01/21 13:53:15;;;;;;;;;;;-0.90;99.90;;;;;;4937438;29;19930;-82
2023/01/21 13:55:49;;;;;;;;;;;-0.90;99.90;;;;;;4932476;29;20021;-82
2023/01/21 13:58:27;;;;;;;;;;;-0.90;99.90;;;;;;4934060;29;19942;-81
2023/01/21 14:01:02;;;;;;;;;;;-0.90;99.90;;;;;;4923437;29;19951;-81
2023/01/21 14:03:40;;;;;;;;;;;-0.90;99.90;;;;;;4936148;29;19934;-81
2023/01/21 14:06:23;;;;;;;;;;;-0.90;99.90;;;;;;4936321;29;19927;-82
2023/01/21 14:09:10;;;;;;;;;;;-0.90;99.90;;;;;;4935708;29;19926;-81
2023/01/21 14:12:01;;;;;;;;;;;-0.90;99.90;;;;;;4928249;29;19928;-81
2023/01/21 14:14:39;;;;;;;;;;;-0.90;99.90;;;;;;4930875;29;19938;-82
2023/01/21 14:17:25;;;;;;;;;;;-0.80;99.90;;;;;;4939023;29;19930;-81
2023/01/21 14:19:58;;;;;;;;;;;-0.90;99.90;;;;;;4937466;29;19959;-81
2023/01/21 14:22:32;;;;;;;;;;;-0.80;99.90;;;;;;4920260;29;20397;-81
2023/01/21 14:25:08;;;;;;;;;;;-0.80;99.90;;;;;;4933336;29;19966;-84
2023/01/21 14:27:45;;;;;;;;;;;-0.80;99.90;;;;;;4936221;28;19950;-82
2023/01/21 14:30:15;;;;;;;;;;;-0.80;99.90;;;;;;4934214;29;19926;-91
2023/01/21 14:32:44;;;;;;;;;;;-0.80;99.90;;;;;;4936030;29;19998;-82
2023/01/21 14:35:19;;;;;;;;;;;-0.80;99.90;;;;;;4935745;29;19986;-84
2023/01/21 14:37:50;;;;;;;;;;;-0.80;99.90;;;;;;4938030;29;20423;-82
2023/01/21 14:40:19;;;;;;;;;;;-0.80;99.90;;;;;;4921483;29;20409;-80
2023/01/21 14:42:49;;;;;;;;;;;-0.80;99.90;;;;;;4933662;29;19926;-83
2023/01/21 14:45:17;;;;;;;;;;;-0.80;99.90;;;;;;4939701;29;20282;-87
2023/01/21 14:47:46;;;;;;;;;;;-0.80;99.90;;;;;;4939907;28;19934;-81
2023/01/21 14:50:28;;;;;;;;;;;-0.80;99.90;;;;;;4935575;29;19930;-81